Авиационная погода в Раменское

СКИДКИ НА СМАРТФОНЫ!

Регион: 
Погода METAR: 
UUBW 072000Z 12007MPS CAVOK M11/M13 Q1024 R12/810250 NOSIG
Время наблюдения
2022-12-07T20:00:00Z
Температура C
-11.0
Точка росы
-13.0
Направление ветра
120
Скорость ветра (узлы)
14
Метео видимость
6.21
Облачность
CAVOK
Нижняя граница облачности (футы)
Явления погоды
Условия полета
VFR
Аэропорт подробнее: 

Скидки на навигаторы!